Portada
METAR-TAF:

METAR-TAF

Aeroports :

Macas, Equador

latitud: 02-17-57-S, longitud: 078-07-15-W, altitud: 1052 m

Observació

L'informe es va fer fa 56 minuts, a les 20:00 UTC
Vent 1 kt del Nord
Temperatura 27°C
Humitat 58%
Pressió 1012 hPa
Visibilitat 10 km o més
Núvols disperses a una alçada de 3000 ft

METAR: SEMC 132000Z 01001KT 9999 SCT030 27/18 Q1012 RMK A2989

Hora: 15:56 (20:56 UTC)


TAF: manca

Observacions i pronòstics meteorològics de més de 4000 aeroports (METAR i TAF).

Les estacions disponibles són els punts grocs i vermells al mapa.

Posi el ratolí al punt desitjat per veure el nom de l'estació.

Feu clic per veure les observacions i els pronòstics meteorològics.

Per canviar el mapa: feu clic els botons verds amb una creu de color negre per apropar; al botó verd amb un guió per allunyar la imatge; o en les fletxes verdes per a mapes adjacents.


METAR-TAF: